createdAt,value
2022-10-22T00:02:20.039Z,99.90
2022-10-22T00:05:06.123Z,99.90
2022-10-22T00:07:51.351Z,99.90
2022-10-22T00:10:38.741Z,99.90
2022-10-22T00:13:24.248Z,99.90
2022-10-22T00:16:10.340Z,99.90
2022-10-22T00:18:56.039Z,99.90
2022-10-22T00:21:41.479Z,99.90
2022-10-22T00:24:27.134Z,99.90
2022-10-22T00:27:13.618Z,99.90
2022-10-22T00:29:59.185Z,99.90
2022-10-22T00:32:44.518Z,99.90
2022-10-22T00:35:30.180Z,99.90
2022-10-22T00:38:15.887Z,99.90
2022-10-22T00:44:06.862Z,99.90
2022-10-22T00:46:52.359Z,99.90
2022-10-22T00:49:37.848Z,99.90
2022-10-22T00:52:23.371Z,99.90
2022-10-22T00:55:09.935Z,99.90
2022-10-22T00:57:57.063Z,99.90
2022-10-22T01:00:42.981Z,99.90
2022-10-22T01:03:28.888Z,99.90
2022-10-22T01:06:29.302Z,99.90
2022-10-22T01:09:38.286Z,99.90
2022-10-22T01:12:45.474Z,99.90
2022-10-22T01:16:04.215Z,99.90
2022-10-22T01:19:04.756Z,99.90
2022-10-22T01:21:58.289Z,99.90
2022-10-22T01:24:49.665Z,99.90
2022-10-22T01:28:11.935Z,99.90
2022-10-22T01:30:59.676Z,99.90
2022-10-22T01:33:47.891Z,99.90
2022-10-22T01:36:35.590Z,99.90
2022-10-22T01:39:23.337Z,99.90
2022-10-22T01:42:08.469Z,99.90
2022-10-22T01:44:54.307Z,99.90
2022-10-22T01:48:15.159Z,99.90
2022-10-22T01:51:18.656Z,99.90
2022-10-22T01:54:16.025Z,99.90
2022-10-22T01:57:30.882Z,99.90
2022-10-22T02:00:18.538Z,99.90
2022-10-22T02:03:05.906Z,99.90
2022-10-22T02:05:56.828Z,99.90
2022-10-22T02:08:43.398Z,99.90
2022-10-22T02:11:29.106Z,99.90
2022-10-22T02:14:17.786Z,99.90
2022-10-22T02:17:04.160Z,99.90
2022-10-22T02:20:10.121Z,99.90
2022-10-22T02:22:56.827Z,99.90
2022-10-22T02:25:45.793Z,99.90
2022-10-22T02:28:44.489Z,99.90
2022-10-22T02:31:33.485Z,99.90
2022-10-22T02:34:23.296Z,99.90
2022-10-22T02:37:09.943Z,99.90
2022-10-22T02:39:56.455Z,99.90
2022-10-22T02:42:43.228Z,99.90
2022-10-22T02:45:28.817Z,99.90
2022-10-22T02:48:14.053Z,99.90
2022-10-22T02:50:59.879Z,99.90
2022-10-22T02:53:45.433Z,99.90
2022-10-22T02:56:30.960Z,99.90
2022-10-22T02:59:16.367Z,99.90
2022-10-22T03:02:01.666Z,99.90
2022-10-22T03:04:47.465Z,99.90
2022-10-22T03:07:33.393Z,99.90
2022-10-22T03:10:18.650Z,99.90
2022-10-22T03:13:04.580Z,99.90
2022-10-22T03:15:50.584Z,99.90
2022-10-22T03:18:36.171Z,99.90
2022-10-22T03:21:35.043Z,99.90
2022-10-22T03:24:48.979Z,99.90
2022-10-22T03:27:36.592Z,99.90
2022-10-22T03:30:22.285Z,99.90
2022-10-22T03:33:07.970Z,99.90
2022-10-22T03:35:53.452Z,99.90
2022-10-22T03:38:40.051Z,99.90
2022-10-22T03:41:26.053Z,99.90
2022-10-22T03:44:12.044Z,99.90
2022-10-22T03:47:00.216Z,99.90
2022-10-22T03:49:48.217Z,99.90
2022-10-22T03:52:38.764Z,99.90
2022-10-22T03:55:25.001Z,99.90
2022-10-22T03:58:10.337Z,99.90
2022-10-22T04:00:56.098Z,99.90
2022-10-22T04:03:41.768Z,99.90
2022-10-22T04:06:29.302Z,99.90
2022-10-22T04:09:14.629Z,99.90
2022-10-22T04:12:00.399Z,99.90
2022-10-22T04:14:45.608Z,99.90
2022-10-22T04:17:36.225Z,99.90
2022-10-22T04:20:21.708Z,99.90
2022-10-22T04:23:07.109Z,99.90
2022-10-22T04:25:59.222Z,99.90
2022-10-22T04:28:45.238Z,99.90
2022-10-22T04:31:31.077Z,99.90
2022-10-22T04:34:16.474Z,99.90
2022-10-22T04:37:01.977Z,99.90
2022-10-22T04:39:47.320Z,99.90
2022-10-22T04:42:32.908Z,99.90
2022-10-22T04:45:18.444Z,99.90
2022-10-22T04:48:04.147Z,99.90
2022-10-22T04:50:49.496Z,99.90
2022-10-22T04:53:35.807Z,99.90
2022-10-22T04:56:25.768Z,99.90
2022-10-22T04:59:12.830Z,99.90
2022-10-22T05:01:58.429Z,99.90
2022-10-22T05:04:44.598Z,99.90
2022-10-22T05:07:29.987Z,99.90
2022-10-22T05:10:15.643Z,99.90
2022-10-22T05:13:01.009Z,99.90
2022-10-22T05:15:46.609Z,99.90
2022-10-22T05:18:37.674Z,99.90
2022-10-22T05:21:23.291Z,99.90
2022-10-22T05:24:08.742Z,99.90
2022-10-22T05:26:56.164Z,99.90
2022-10-22T05:29:41.415Z,99.90
2022-10-22T05:32:27.103Z,99.90
2022-10-22T05:35:14.045Z,99.90
2022-10-22T05:37:59.367Z,99.90
2022-10-22T05:40:45.633Z,99.90
2022-10-22T05:43:32.451Z,99.90
2022-10-22T05:46:22.762Z,99.90
2022-10-22T05:49:12.146Z,99.90
2022-10-22T05:51:57.859Z,99.90
2022-10-22T05:54:43.430Z,99.90
2022-10-22T05:57:28.891Z,99.90
2022-10-22T06:00:16.522Z,99.90
2022-10-22T06:03:02.299Z,99.90
2022-10-22T06:05:47.658Z,99.90
2022-10-22T06:08:34.241Z,99.90
2022-10-22T06:11:21.175Z,99.90
2022-10-22T06:14:06.650Z,99.90
2022-10-22T06:16:52.476Z,99.90
2022-10-22T06:19:38.156Z,99.90
2022-10-22T06:22:23.805Z,99.90
2022-10-22T06:25:09.577Z,99.90
2022-10-22T06:27:55.318Z,99.90
2022-10-22T06:30:43.034Z,99.90
2022-10-22T06:33:34.796Z,99.90
2022-10-22T06:36:22.878Z,99.90
2022-10-22T06:39:15.498Z,99.90
2022-10-22T06:42:01.099Z,99.90
2022-10-22T06:44:46.649Z,99.90
2022-10-22T06:47:33.440Z,99.90
2022-10-22T06:50:19.187Z,99.90
2022-10-22T06:53:04.706Z,99.90
2022-10-22T06:55:50.460Z,99.90
2022-10-22T06:58:37.535Z,99.90
2022-10-22T07:01:32.660Z,99.90
2022-10-22T07:04:17.900Z,99.90
2022-10-22T07:07:03.474Z,99.90
2022-10-22T07:09:50.618Z,99.90
2022-10-22T07:12:37.396Z,99.90
2022-10-22T07:15:23.103Z,99.90
2022-10-22T07:18:08.763Z,99.90
2022-10-22T07:20:54.288Z,99.90
2022-10-22T07:23:40.090Z,99.90
2022-10-22T07:26:30.615Z,99.90
2022-10-22T07:29:16.957Z,99.90
2022-10-22T07:32:02.419Z,99.90
2022-10-22T07:34:47.791Z,99.90
2022-10-22T07:37:33.401Z,99.90
2022-10-22T07:40:19.133Z,99.90
2022-10-22T07:43:05.186Z,99.90
2022-10-22T07:45:50.696Z,99.90
2022-10-22T07:48:37.142Z,99.90
2022-10-22T07:51:22.921Z,99.90
2022-10-22T07:54:08.422Z,99.90
2022-10-22T07:56:55.394Z,99.90
2022-10-22T07:59:40.924Z,99.90
2022-10-22T08:02:26.763Z,99.90
2022-10-22T08:05:13.550Z,99.90
2022-10-22T08:07:59.798Z,99.90
2022-10-22T08:10:47.254Z,99.90
2022-10-22T08:13:32.933Z,99.90
2022-10-22T08:16:18.468Z,99.90
2022-10-22T08:19:03.951Z,99.90
2022-10-22T08:21:49.428Z,99.90
2022-10-22T08:24:35.055Z,99.90
2022-10-22T08:27:20.892Z,99.90
2022-10-22T08:30:07.245Z,99.90
2022-10-22T08:32:54.058Z,99.90
2022-10-22T08:35:39.780Z,99.90
2022-10-22T08:38:25.465Z,99.90
2022-10-22T08:41:15.962Z,99.90
2022-10-22T08:44:39.766Z,99.90
2022-10-22T08:47:33.790Z,99.90
2022-10-22T08:50:43.735Z,99.90
2022-10-22T08:53:41.774Z,99.90
2022-10-22T08:56:27.171Z,99.90
2022-10-22T08:59:26.462Z,99.90
2022-10-22T09:02:36.074Z,99.90
2022-10-22T09:05:49.358Z,99.90
2022-10-22T09:08:36.379Z,99.90
2022-10-22T09:11:32.914Z,99.90
2022-10-22T09:14:22.192Z,90.00
2022-10-22T09:17:21.541Z,92.70
2022-10-22T09:20:28.595Z,89.90
2022-10-22T09:23:31.929Z,88.80
2022-10-22T09:26:17.890Z,89.10
2022-10-22T09:29:04.488Z,86.40
2022-10-22T09:31:50.099Z,84.30
2022-10-22T09:34:35.826Z,86.00
2022-10-22T09:37:26.216Z,82.30
2022-10-22T09:40:15.134Z,83.00
2022-10-22T09:43:00.829Z,78.40
2022-10-22T09:45:47.442Z,80.10
2022-10-22T09:48:44.888Z,76.20
2022-10-22T09:51:48.634Z,79.50
2022-10-22T09:54:34.198Z,80.00
2022-10-22T09:57:24.899Z,75.90
2022-10-22T10:00:12.722Z,72.80
2022-10-22T10:02:59.830Z,68.10
2022-10-22T10:05:49.427Z,63.30
2022-10-22T10:08:35.003Z,62.40
2022-10-22T10:11:32.541Z,63.70
2022-10-22T10:14:28.503Z,64.80
2022-10-22T10:17:50.864Z,65.60
2022-10-22T10:20:47.186Z,64.40
2022-10-22T10:24:08.867Z,64.90
2022-10-22T10:27:05.317Z,67.20
2022-10-22T10:30:15.070Z,68.50
2022-10-22T10:33:15.859Z,61.80
2022-10-22T10:36:24.321Z,59.60
2022-10-22T10:39:16.253Z,60.20
2022-10-22T10:42:28.010Z,57.30
2022-10-22T10:45:31.781Z,56.10
2022-10-22T10:48:29.230Z,58.10
2022-10-22T10:51:36.632Z,62.60
2022-10-22T10:54:44.636Z,63.90
2022-10-22T10:57:51.249Z,61.10
2022-10-22T11:00:46.393Z,51.70
2022-10-22T11:03:51.637Z,54.80
2022-10-22T11:06:39.358Z,50.30
2022-10-22T11:09:36.969Z,49.30
2022-10-22T11:12:33.403Z,48.90
2022-10-22T11:15:33.295Z,48.80
2022-10-22T11:18:49.638Z,48.90
2022-10-22T11:21:47.208Z,50.60
2022-10-22T11:24:50.707Z,45.90
2022-10-22T11:27:39.245Z,47.80
2022-10-22T11:30:28.687Z,43.60
2022-10-22T11:33:21.399Z,41.40
2022-10-22T11:36:11.550Z,39.10
2022-10-22T11:38:56.747Z,45.40
2022-10-22T11:41:45.598Z,43.80
2022-10-22T11:44:32.560Z,42.00
2022-10-22T11:47:25.835Z,40.40
2022-10-22T11:50:43.489Z,40.50
2022-10-22T11:53:41.562Z,37.50
2022-10-22T11:56:36.773Z,35.60
2022-10-22T11:59:40.935Z,39.70
2022-10-22T12:02:29.396Z,37.00
2022-10-22T12:05:23.688Z,37.70
2022-10-22T12:08:25.079Z,37.70
2022-10-22T12:11:10.260Z,35.90
2022-10-22T12:14:01.461Z,30.50
2022-10-22T12:17:03.874Z,35.10
2022-10-22T12:19:56.432Z,33.00
2022-10-22T12:22:44.239Z,35.40
2022-10-22T12:25:35.843Z,34.60
2022-10-22T12:28:21.729Z,32.60
2022-10-22T12:31:18.094Z,32.00
2022-10-22T12:34:03.899Z,32.50
2022-10-22T12:36:51.463Z,34.20
2022-10-22T12:39:36.742Z,28.90
2022-10-22T12:42:23.835Z,31.70
2022-10-22T12:45:09.908Z,35.10
2022-10-22T12:48:01.687Z,31.60
2022-10-22T12:50:53.117Z,32.50
2022-10-22T12:54:02.593Z,33.30
2022-10-22T12:56:48.264Z,34.20
2022-10-22T12:59:36.675Z,35.00
2022-10-22T13:02:25.254Z,31.20
2022-10-22T13:05:20.026Z,30.00
2022-10-22T13:08:16.908Z,33.40
2022-10-22T13:11:09.150Z,33.40
2022-10-22T13:14:05.622Z,33.50
2022-10-22T13:17:17.020Z,28.90
2022-10-22T13:20:07.155Z,28.20
2022-10-22T13:23:04.507Z,27.40
2022-10-22T13:26:14.774Z,31.80
2022-10-22T13:29:01.509Z,30.20
2022-10-22T13:31:53.479Z,32.30
2022-10-22T13:34:40.147Z,26.70
2022-10-22T13:37:26.171Z,28.10
2022-10-22T13:40:13.479Z,26.70
2022-10-22T13:42:58.887Z,27.20
2022-10-22T13:45:45.809Z,29.40
2022-10-22T13:48:31.501Z,25.50
2022-10-22T13:51:20.935Z,24.10
2022-10-22T13:54:21.410Z,23.70
2022-10-22T13:57:09.531Z,23.90
2022-10-22T13:59:55.219Z,23.90
2022-10-22T14:02:41.814Z,24.60
2022-10-22T14:05:27.687Z,24.40
2022-10-22T14:08:15.900Z,23.90
2022-10-22T14:11:01.575Z,24.30
2022-10-22T14:13:47.125Z,24.70
2022-10-22T14:16:34.379Z,24.30
2022-10-22T14:19:19.813Z,24.20
2022-10-22T14:22:05.407Z,23.30
2022-10-22T14:24:51.991Z,20.70
2022-10-22T14:27:38.504Z,20.90
2022-10-22T14:30:26.021Z,21.30
2022-10-22T14:33:27.200Z,25.10
2022-10-22T14:36:18.513Z,21.80
2022-10-22T14:39:04.285Z,27.00
2022-10-22T14:41:49.649Z,24.80
2022-10-22T14:44:35.032Z,24.90
2022-10-22T14:47:21.394Z,26.90
2022-10-22T14:50:08.090Z,29.20
2022-10-22T14:52:53.462Z,27.20
2022-10-22T14:55:39.145Z,27.50
2022-10-22T14:58:24.541Z,27.70
2022-10-22T15:01:09.892Z,27.70
2022-10-22T15:03:55.328Z,29.10
2022-10-22T15:06:40.862Z,28.40
2022-10-22T15:09:26.698Z,31.30
2022-10-22T15:12:11.949Z,32.30
2022-10-22T15:14:57.683Z,30.60
2022-10-22T15:17:43.579Z,32.60
2022-10-22T15:20:29.203Z,33.50
2022-10-22T15:23:14.477Z,34.20
2022-10-22T15:26:00.010Z,36.10
2022-10-22T15:28:46.829Z,35.50
2022-10-22T15:31:49.277Z,35.80
2022-10-22T15:34:36.097Z,38.90
2022-10-22T15:37:22.096Z,40.20
2022-10-22T15:40:08.691Z,40.80
2022-10-22T15:42:53.926Z,41.70
2022-10-22T15:45:40.493Z,43.00
2022-10-22T15:48:25.799Z,45.10
2022-10-22T15:51:16.677Z,46.40
2022-10-22T15:54:03.538Z,45.80
2022-10-22T15:56:52.349Z,47.60
2022-10-22T15:59:37.869Z,48.20
2022-10-22T16:02:23.332Z,50.00
2022-10-22T16:05:09.451Z,51.90
2022-10-22T16:07:56.512Z,53.80
2022-10-22T16:10:46.426Z,54.00
2022-10-22T16:13:32.004Z,55.80
2022-10-22T16:16:17.429Z,56.60
2022-10-22T16:19:03.671Z,56.90
2022-10-22T16:21:51.391Z,57.90
2022-10-22T16:24:40.364Z,58.10
2022-10-22T16:27:29.528Z,58.60
2022-10-22T16:30:16.303Z,59.40
2022-10-22T16:33:03.454Z,59.10
2022-10-22T16:35:49.158Z,58.90
2022-10-22T16:38:35.117Z,58.90
2022-10-22T16:41:23.375Z,59.60
2022-10-22T16:44:10.467Z,59.20
2022-10-22T16:46:55.884Z,59.50
2022-10-22T16:49:41.356Z,60.40
2022-10-22T16:52:27.037Z,60.80
2022-10-22T16:55:12.380Z,61.20
2022-10-22T16:57:57.621Z,61.30
2022-10-22T17:00:43.125Z,62.20
2022-10-22T17:03:28.804Z,62.60
2022-10-22T17:06:14.852Z,63.60
2022-10-22T17:09:00.243Z,64.50
2022-10-22T17:11:46.403Z,66.50
2022-10-22T17:14:32.398Z,66.50
2022-10-22T17:17:17.949Z,67.00
2022-10-22T17:20:04.027Z,67.70
2022-10-22T17:22:49.916Z,67.90
2022-10-22T17:25:45.738Z,68.00
2022-10-22T17:28:35.343Z,68.90
2022-10-22T17:31:24.870Z,70.10
2022-10-22T17:34:16.511Z,74.70
2022-10-22T17:37:02.169Z,80.10
2022-10-22T17:39:50.483Z,81.80
2022-10-22T17:42:36.418Z,82.20
2022-10-22T17:45:22.415Z,82.70
2022-10-22T17:48:08.135Z,82.40
2022-10-22T17:50:55.755Z,82.80
2022-10-22T17:53:47.419Z,83.20
2022-10-22T17:56:32.770Z,83.80
2022-10-22T17:59:19.495Z,84.70
2022-10-22T18:02:05.480Z,85.10
2022-10-22T18:04:52.583Z,84.70
2022-10-22T18:07:38.458Z,85.40
2022-10-22T18:10:27.213Z,85.90
2022-10-22T18:13:13.933Z,86.10
2022-10-22T18:16:00.047Z,85.40
2022-10-22T18:18:50.372Z,85.70
2022-10-22T18:21:37.151Z,85.00
2022-10-22T18:24:22.909Z,85.10
2022-10-22T18:27:08.548Z,85.50
2022-10-22T18:29:54.541Z,85.40
2022-10-22T18:32:40.177Z,85.10
2022-10-22T18:35:25.748Z,85.60
2022-10-22T18:38:11.086Z,84.80
2022-10-22T18:40:56.567Z,85.70
2022-10-22T18:43:42.395Z,85.50
2022-10-22T18:46:29.307Z,85.90
2022-10-22T18:49:18.776Z,85.00
2022-10-22T18:52:04.851Z,85.80
2022-10-22T18:54:50.687Z,86.80
2022-10-22T18:57:36.262Z,96.20
2022-10-22T19:00:22.162Z,99.90
2022-10-22T19:03:07.961Z,99.90
2022-10-22T19:05:54.300Z,99.90
2022-10-22T19:08:42.300Z,99.90
2022-10-22T19:11:28.199Z,99.90
2022-10-22T19:14:15.100Z,99.90
2022-10-22T19:17:01.061Z,99.90
2022-10-22T19:19:46.564Z,99.90
2022-10-22T19:22:32.450Z,99.90
2022-10-22T19:25:18.103Z,99.90
2022-10-22T19:28:03.523Z,99.90
2022-10-22T19:30:49.448Z,99.90
2022-10-22T19:33:36.366Z,99.90
2022-10-22T19:36:30.311Z,99.90
2022-10-22T19:39:17.024Z,99.90
2022-10-22T19:42:04.316Z,99.90
2022-10-22T19:44:50.026Z,99.90
2022-10-22T19:47:36.874Z,99.90
2022-10-22T19:50:22.942Z,99.90
2022-10-22T19:53:08.835Z,99.90
2022-10-22T19:55:54.590Z,99.90
2022-10-22T19:58:39.910Z,99.90
2022-10-22T20:01:25.891Z,99.90
2022-10-22T20:04:15.492Z,99.90
2022-10-22T20:07:01.172Z,99.90
2022-10-22T20:09:46.568Z,99.90
2022-10-22T20:12:32.591Z,99.90
2022-10-22T20:15:18.750Z,99.90
2022-10-22T20:18:04.448Z,99.90
2022-10-22T20:20:50.382Z,99.90
2022-10-22T20:23:35.715Z,99.90
2022-10-22T20:26:24.013Z,99.90
2022-10-22T20:29:12.059Z,99.90
2022-10-22T20:31:57.727Z,99.90
2022-10-22T20:34:43.072Z,99.90
2022-10-22T20:37:28.712Z,99.90
2022-10-22T20:40:14.760Z,99.90
2022-10-22T20:43:01.351Z,99.90
2022-10-22T20:45:46.913Z,99.90
2022-10-22T20:48:32.661Z,99.90
2022-10-22T20:51:18.565Z,99.90
2022-10-22T20:54:05.358Z,99.90
2022-10-22T20:56:50.938Z,99.90
2022-10-22T20:59:36.820Z,99.90
2022-10-22T21:02:22.680Z,99.90
2022-10-22T21:05:08.740Z,99.90
2022-10-22T21:07:54.435Z,99.90
2022-10-22T21:10:39.875Z,99.90
2022-10-22T21:13:25.632Z,99.90
2022-10-22T21:16:12.714Z,99.90
2022-10-22T21:18:58.199Z,99.90
2022-10-22T21:21:43.938Z,99.90
2022-10-22T21:24:30.334Z,99.90
2022-10-22T21:27:16.547Z,99.90
2022-10-22T21:30:02.253Z,99.90
2022-10-22T21:32:47.542Z,99.90
2022-10-22T21:35:33.466Z,99.90
2022-10-22T21:38:19.437Z,99.90
2022-10-22T21:41:11.317Z,99.90
2022-10-22T21:43:56.678Z,99.90
2022-10-22T21:46:42.112Z,99.90
2022-10-22T21:49:27.724Z,99.90
2022-10-22T21:52:13.577Z,99.90
2022-10-22T21:54:59.127Z,99.90
2022-10-22T21:57:44.923Z,99.90
2022-10-22T22:00:30.365Z,99.90
2022-10-22T22:03:15.949Z,99.90
2022-10-22T22:06:04.063Z,99.90
2022-10-22T22:08:51.840Z,99.90
2022-10-22T22:11:37.469Z,99.90
2022-10-22T22:14:22.796Z,99.90
2022-10-22T22:17:10.576Z,99.90
2022-10-22T22:19:56.940Z,99.90
2022-10-22T22:22:43.035Z,99.90
2022-10-22T22:25:29.896Z,99.90
2022-10-22T22:28:15.463Z,99.90
2022-10-22T22:31:01.417Z,99.90
2022-10-22T22:33:46.960Z,99.90
2022-10-22T22:36:38.129Z,99.90
2022-10-22T22:39:24.075Z,99.90
2022-10-22T22:42:09.332Z,99.90
2022-10-22T22:44:54.884Z,99.90
2022-10-22T22:47:40.659Z,99.90
2022-10-22T22:50:26.585Z,99.90
2022-10-22T22:53:12.007Z,99.90
2022-10-22T22:56:07.822Z,99.90
2022-10-22T22:58:53.489Z,99.90
2022-10-22T23:01:39.722Z,99.90
2022-10-22T23:04:25.367Z,99.90
2022-10-22T23:07:11.549Z,99.90
2022-10-22T23:09:56.975Z,99.90
2022-10-22T23:12:43.002Z,99.90
2022-10-22T23:15:28.553Z,99.90
2022-10-22T23:18:13.996Z,99.90
2022-10-22T23:21:02.836Z,99.90
2022-10-22T23:23:50.492Z,99.90
2022-10-22T23:26:42.958Z,99.90
2022-10-22T23:29:32.298Z,99.90
2022-10-22T23:32:17.730Z,99.90
2022-10-22T23:35:03.235Z,99.90
2022-10-22T23:37:48.638Z,99.90
2022-10-22T23:40:34.681Z,99.90
2022-10-22T23:43:21.162Z,99.90
2022-10-22T23:46:09.701Z,99.90
2022-10-22T23:48:55.454Z,99.90
2022-10-22T23:51:41.160Z,99.90
2022-10-22T23:54:26.999Z,99.90
2022-10-22T23:57:12.169Z,99.90
2022-10-22T23:59:57.741Z,99.90
